sensor_id;sensor_type;location;lat;lon;timestamp;P1;durP1;ratioP1;P2;durP2;ratioP2
12900;SDS011;6518;50.930;5.344;2022-12-18T00:00:58;62.00;;;31.60;;
12900;SDS011;6518;50.930;5.344;2022-12-18T00:03:26;63.37;;;32.10;;
12900;SDS011;6518;50.930;5.344;2022-12-18T00:05:53;60.07;;;31.03;;
12900;SDS011;6518;50.930;5.344;2022-12-18T00:08:20;56.43;;;31.03;;
12900;SDS011;6518;50.930;5.344;2022-12-18T00:10:47;60.77;;;31.13;;
12900;SDS011;6518;50.930;5.344;2022-12-18T00:13:13;66.87;;;33.50;;
12900;SDS011;6518;50.930;5.344;2022-12-18T00:15:40;58.53;;;31.77;;
12900;SDS011;6518;50.930;5.344;2022-12-18T00:18:07;67.83;;;32.13;;
12900;SDS011;6518;50.930;5.344;2022-12-18T00:20:39;62.17;;;31.13;;
12900;SDS011;6518;50.930;5.344;2022-12-18T00:23:06;64.23;;;33.40;;
12900;SDS011;6518;50.930;5.344;2022-12-18T00:25:34;64.53;;;33.70;;
12900;SDS011;6518;50.930;5.344;2022-12-18T00:28:01;61.80;;;31.73;;
12900;SDS011;6518;50.930;5.344;2022-12-18T00:30:28;62.40;;;32.33;;
12900;SDS011;6518;50.930;5.344;2022-12-18T00:32:56;60.87;;;30.77;;
12900;SDS011;6518;50.930;5.344;2022-12-18T00:35:23;58.53;;;32.33;;
12900;SDS011;6518;50.930;5.344;2022-12-18T00:37:52;60.60;;;32.30;;
12900;SDS011;6518;50.930;5.344;2022-12-18T00:40:19;58.93;;;30.37;;
12900;SDS011;6518;50.930;5.344;2022-12-18T00:42:46;57.47;;;31.80;;
12900;SDS011;6518;50.930;5.344;2022-12-18T00:45:24;58.03;;;30.57;;
12900;SDS011;6518;50.930;5.344;2022-12-18T00:47:51;57.20;;;31.37;;
12900;SDS011;6518;50.930;5.344;2022-12-18T00:50:19;57.77;;;30.97;;
12900;SDS011;6518;50.930;5.344;2022-12-18T00:52:46;62.07;;;32.13;;
12900;SDS011;6518;50.930;5.344;2022-12-18T00:55:15;58.63;;;30.93;;
12900;SDS011;6518;50.930;5.344;2022-12-18T00:57:42;54.97;;;30.83;;
12900;SDS011;6518;50.930;5.344;2022-12-18T01:00:10;58.60;;;30.27;;
12900;SDS011;6518;50.930;5.344;2022-12-18T01:02:40;60.73;;;30.07;;
12900;SDS011;6518;50.930;5.344;2022-12-18T01:05:08;60.80;;;31.70;;
12900;SDS011;6518;50.930;5.344;2022-12-18T01:07:36;55.37;;;30.70;;
12900;SDS011;6518;50.930;5.344;2022-12-18T01:10:03;59.57;;;31.57;;
12900;SDS011;6518;50.930;5.344;2022-12-18T01:12:33;57.20;;;29.20;;
12900;SDS011;6518;50.930;5.344;2022-12-18T01:15:00;55.07;;;29.20;;
12900;SDS011;6518;50.930;5.344;2022-12-18T01:17:27;55.80;;;29.33;;
12900;SDS011;6518;50.930;5.344;2022-12-18T01:19:54;58.43;;;29.57;;
12900;SDS011;6518;50.930;5.344;2022-12-18T01:22:21;59.23;;;30.90;;
12900;SDS011;6518;50.930;5.344;2022-12-18T01:24:48;54.43;;;29.83;;
12900;SDS011;6518;50.930;5.344;2022-12-18T01:27:15;64.00;;;30.43;;
12900;SDS011;6518;50.930;5.344;2022-12-18T01:29:44;57.23;;;29.87;;
12900;SDS011;6518;50.930;5.344;2022-12-18T01:32:11;60.33;;;31.43;;
12900;SDS011;6518;50.930;5.344;2022-12-18T01:34:37;64.23;;;32.67;;
12900;SDS011;6518;50.930;5.344;2022-12-18T01:37:05;58.43;;;29.47;;
12900;SDS011;6518;50.930;5.344;2022-12-18T01:39:32;58.50;;;28.87;;
12900;SDS011;6518;50.930;5.344;2022-12-18T01:41:59;58.50;;;29.60;;
12900;SDS011;6518;50.930;5.344;2022-12-18T01:47:25;52.50;;;28.03;;
12900;SDS011;6518;50.930;5.344;2022-12-18T01:49:55;52.97;;;27.93;;
12900;SDS011;6518;50.930;5.344;2022-12-18T01:52:23;53.90;;;27.90;;
12900;SDS011;6518;50.930;5.344;2022-12-18T01:54:52;52.60;;;29.07;;
12900;SDS011;6518;50.930;5.344;2022-12-18T01:57:20;54.53;;;27.90;;
12900;SDS011;6518;50.930;5.344;2022-12-18T01:59:49;51.90;;;28.17;;
12900;SDS011;6518;50.930;5.344;2022-12-18T02:02:20;56.97;;;28.37;;
12900;SDS011;6518;50.930;5.344;2022-12-18T02:04:47;55.27;;;28.23;;
12900;SDS011;6518;50.930;5.344;2022-12-18T02:07:24;53.17;;;28.10;;
12900;SDS011;6518;50.930;5.344;2022-12-18T02:09:59;53.93;;;28.67;;
12900;SDS011;6518;50.930;5.344;2022-12-18T02:12:30;49.87;;;27.47;;
12900;SDS011;6518;50.930;5.344;2022-12-18T02:15:07;57.07;;;28.87;;
12900;SDS011;6518;50.930;5.344;2022-12-18T02:17:42;51.37;;;27.53;;
12900;SDS011;6518;50.930;5.344;2022-12-18T02:20:16;54.60;;;28.97;;
12900;SDS011;6518;50.930;5.344;2022-12-18T02:22:49;48.97;;;27.80;;
12900;SDS011;6518;50.930;5.344;2022-12-18T02:25:35;54.20;;;25.80;;
12900;SDS011;6518;50.930;5.344;2022-12-18T02:28:14;48.57;;;26.17;;
12900;SDS011;6518;50.930;5.344;2022-12-18T02:30:45;49.70;;;26.50;;
12900;SDS011;6518;50.930;5.344;2022-12-18T02:33:15;49.80;;;26.50;;
12900;SDS011;6518;50.930;5.344;2022-12-18T02:35:43;50.43;;;26.03;;
12900;SDS011;6518;50.930;5.344;2022-12-18T02:38:12;50.73;;;26.63;;
12900;SDS011;6518;50.930;5.344;2022-12-18T02:40:40;47.90;;;25.10;;
12900;SDS011;6518;50.930;5.344;2022-12-18T02:43:09;47.97;;;27.10;;
12900;SDS011;6518;50.930;5.344;2022-12-18T02:45:47;46.43;;;25.50;;
12900;SDS011;6518;50.930;5.344;2022-12-18T02:48:15;49.37;;;26.03;;
12900;SDS011;6518;50.930;5.344;2022-12-18T02:50:45;46.77;;;24.90;;
12900;SDS011;6518;50.930;5.344;2022-12-18T02:53:24;46.57;;;24.40;;
12900;SDS011;6518;50.930;5.344;2022-12-18T02:55:56;46.00;;;23.37;;
12900;SDS011;6518;50.930;5.344;2022-12-18T02:58:30;49.07;;;24.40;;
12900;SDS011;6518;50.930;5.344;2022-12-18T03:01:06;43.67;;;23.07;;
12900;SDS011;6518;50.930;5.344;2022-12-18T03:03:39;43.03;;;22.73;;
12900;SDS011;6518;50.930;5.344;2022-12-18T03:06:08;42.53;;;23.20;;
12900;SDS011;6518;50.930;5.344;2022-12-18T03:08:41;46.97;;;23.27;;
12900;SDS011;6518;50.930;5.344;2022-12-18T03:11:11;43.00;;;22.07;;
12900;SDS011;6518;50.930;5.344;2022-12-18T03:13:41;42.67;;;20.70;;
12900;SDS011;6518;50.930;5.344;2022-12-18T03:16:15;40.20;;;22.30;;
12900;SDS011;6518;50.930;5.344;2022-12-18T03:18:48;43.57;;;22.37;;
12900;SDS011;6518;50.930;5.344;2022-12-18T03:21:21;41.37;;;21.80;;
12900;SDS011;6518;50.930;5.344;2022-12-18T03:23:52;39.67;;;20.87;;
12900;SDS011;6518;50.930;5.344;2022-12-18T03:26:21;38.27;;;20.77;;
12900;SDS011;6518;50.930;5.344;2022-12-18T03:28:51;41.30;;;23.17;;
12900;SDS011;6518;50.930;5.344;2022-12-18T03:31:21;35.87;;;20.23;;
12900;SDS011;6518;50.930;5.344;2022-12-18T03:33:51;40.70;;;21.67;;
12900;SDS011;6518;50.930;5.344;2022-12-18T03:36:19;38.80;;;19.80;;
12900;SDS011;6518;50.930;5.344;2022-12-18T03:38:46;42.33;;;21.03;;
12900;SDS011;6518;50.930;5.344;2022-12-18T03:41:16;36.30;;;21.03;;
12900;SDS011;6518;50.930;5.344;2022-12-18T03:43:47;38.47;;;20.20;;
12900;SDS011;6518;50.930;5.344;2022-12-18T03:46:18;41.73;;;21.03;;
12900;SDS011;6518;50.930;5.344;2022-12-18T03:48:55;39.70;;;20.80;;
12900;SDS011;6518;50.930;5.344;2022-12-18T03:51:28;39.53;;;21.67;;
12900;SDS011;6518;50.930;5.344;2022-12-18T03:54:04;42.30;;;20.20;;
12900;SDS011;6518;50.930;5.344;2022-12-18T03:56:33;40.13;;;21.20;;
12900;SDS011;6518;50.930;5.344;2022-12-18T03:59:03;40.47;;;21.97;;
12900;SDS011;6518;50.930;5.344;2022-12-18T04:01:34;36.30;;;20.40;;
12900;SDS011;6518;50.930;5.344;2022-12-18T04:04:03;38.77;;;20.33;;
12900;SDS011;6518;50.930;5.344;2022-12-18T04:06:32;40.67;;;20.20;;
12900;SDS011;6518;50.930;5.344;2022-12-18T04:09:01;36.97;;;20.47;;
12900;SDS011;6518;50.930;5.344;2022-12-18T04:11:28;36.70;;;19.33;;
12900;SDS011;6518;50.930;5.344;2022-12-18T04:13:55;34.30;;;19.87;;
12900;SDS011;6518;50.930;5.344;2022-12-18T04:16:23;34.47;;;19.83;;
12900;SDS011;6518;50.930;5.344;2022-12-18T04:18:51;30.10;;;18.60;;
12900;SDS011;6518;50.930;5.344;2022-12-18T04:21:18;36.37;;;19.73;;
12900;SDS011;6518;50.930;5.344;2022-12-18T04:23:45;35.97;;;19.57;;
12900;SDS011;6518;50.930;5.344;2022-12-18T04:26:12;33.67;;;19.43;;
12900;SDS011;6518;50.930;5.344;2022-12-18T04:28:39;33.77;;;18.43;;
12900;SDS011;6518;50.930;5.344;2022-12-18T04:31:06;29.60;;;18.20;;
12900;SDS011;6518;50.930;5.344;2022-12-18T04:33:33;35.83;;;19.07;;
12900;SDS011;6518;50.930;5.344;2022-12-18T04:36:02;36.73;;;19.27;;
12900;SDS011;6518;50.930;5.344;2022-12-18T04:38:30;37.97;;;20.70;;
12900;SDS011;6518;50.930;5.344;2022-12-18T04:40:57;32.97;;;19.03;;
12900;SDS011;6518;50.930;5.344;2022-12-18T04:43:24;31.57;;;18.53;;
12900;SDS011;6518;50.930;5.344;2022-12-18T04:45:51;33.87;;;19.77;;
12900;SDS011;6518;50.930;5.344;2022-12-18T04:48:18;32.93;;;18.53;;
12900;SDS011;6518;50.930;5.344;2022-12-18T04:50:46;35.50;;;18.80;;
12900;SDS011;6518;50.930;5.344;2022-12-18T04:53:14;32.77;;;18.73;;
12900;SDS011;6518;50.930;5.344;2022-12-18T04:55:41;34.50;;;19.07;;
12900;SDS011;6518;50.930;5.344;2022-12-18T04:58:08;33.93;;;18.70;;
12900;SDS011;6518;50.930;5.344;2022-12-18T05:00:38;30.67;;;18.60;;
12900;SDS011;6518;50.930;5.344;2022-12-18T05:03:05;37.20;;;19.10;;
12900;SDS011;6518;50.930;5.344;2022-12-18T05:05:38;35.30;;;19.33;;
12900;SDS011;6518;50.930;5.344;2022-12-18T05:08:05;32.97;;;18.63;;
12900;SDS011;6518;50.930;5.344;2022-12-18T05:10:33;33.43;;;19.40;;
12900;SDS011;6518;50.930;5.344;2022-12-18T05:13:00;37.03;;;18.20;;
12900;SDS011;6518;50.930;5.344;2022-12-18T05:15:27;34.17;;;17.67;;
12900;SDS011;6518;50.930;5.344;2022-12-18T05:17:55;33.53;;;17.60;;
12900;SDS011;6518;50.930;5.344;2022-12-18T05:20:22;32.80;;;18.77;;
12900;SDS011;6518;50.930;5.344;2022-12-18T05:22:50;33.57;;;18.80;;
12900;SDS011;6518;50.930;5.344;2022-12-18T05:25:17;32.83;;;18.07;;
12900;SDS011;6518;50.930;5.344;2022-12-18T05:27:45;34.00;;;18.40;;
12900;SDS011;6518;50.930;5.344;2022-12-18T05:30:16;31.43;;;17.47;;
12900;SDS011;6518;50.930;5.344;2022-12-18T05:32:43;29.03;;;17.80;;
12900;SDS011;6518;50.930;5.344;2022-12-18T05:35:10;38.40;;;21.10;;
12900;SDS011;6518;50.930;5.344;2022-12-18T05:37:37;31.83;;;17.83;;
12900;SDS011;6518;50.930;5.344;2022-12-18T05:40:05;34.80;;;18.20;;
12900;SDS011;6518;50.930;5.344;2022-12-18T05:42:35;31.57;;;17.17;;
12900;SDS011;6518;50.930;5.344;2022-12-18T05:45:04;33.63;;;18.23;;
12900;SDS011;6518;50.930;5.344;2022-12-18T05:47:32;31.77;;;17.43;;
12900;SDS011;6518;50.930;5.344;2022-12-18T05:49:59;34.20;;;17.63;;
12900;SDS011;6518;50.930;5.344;2022-12-18T05:52:26;31.23;;;17.67;;
12900;SDS011;6518;50.930;5.344;2022-12-18T05:54:53;32.97;;;16.83;;
12900;SDS011;6518;50.930;5.344;2022-12-18T05:57:20;31.83;;;17.57;;
12900;SDS011;6518;50.930;5.344;2022-12-18T05:59:46;32.20;;;17.23;;
12900;SDS011;6518;50.930;5.344;2022-12-18T06:02:15;29.67;;;16.50;;
12900;SDS011;6518;50.930;5.344;2022-12-18T06:04:41;31.67;;;16.60;;
12900;SDS011;6518;50.930;5.344;2022-12-18T06:07:08;29.83;;;16.57;;
12900;SDS011;6518;50.930;5.344;2022-12-18T06:09:35;28.23;;;16.50;;
12900;SDS011;6518;50.930;5.344;2022-12-18T06:12:02;30.00;;;16.27;;
12900;SDS011;6518;50.930;5.344;2022-12-18T06:14:30;29.93;;;15.80;;
12900;SDS011;6518;50.930;5.344;2022-12-18T06:16:56;27.83;;;16.07;;
12900;SDS011;6518;50.930;5.344;2022-12-18T06:19:25;31.73;;;16.50;;
12900;SDS011;6518;50.930;5.344;2022-12-18T06:21:52;24.17;;;14.77;;
12900;SDS011;6518;50.930;5.344;2022-12-18T06:24:19;26.20;;;14.80;;
12900;SDS011;6518;50.930;5.344;2022-12-18T06:26:46;25.00;;;14.97;;
12900;SDS011;6518;50.930;5.344;2022-12-18T06:29:13;27.53;;;15.30;;
12900;SDS011;6518;50.930;5.344;2022-12-18T06:31:39;26.93;;;16.10;;
12900;SDS011;6518;50.930;5.344;2022-12-18T06:34:06;26.60;;;15.03;;
12900;SDS011;6518;50.930;5.344;2022-12-18T06:36:34;26.43;;;14.73;;
12900;SDS011;6518;50.930;5.344;2022-12-18T06:39:02;27.63;;;15.23;;
12900;SDS011;6518;50.930;5.344;2022-12-18T06:41:29;28.60;;;15.83;;
12900;SDS011;6518;50.930;5.344;2022-12-18T06:43:57;27.13;;;15.00;;
12900;SDS011;6518;50.930;5.344;2022-12-18T06:46:24;25.90;;;14.07;;
12900;SDS011;6518;50.930;5.344;2022-12-18T06:48:51;26.30;;;14.93;;
12900;SDS011;6518;50.930;5.344;2022-12-18T06:51:18;25.53;;;13.97;;
12900;SDS011;6518;50.930;5.344;2022-12-18T06:53:47;25.73;;;14.67;;
12900;SDS011;6518;50.930;5.344;2022-12-18T06:56:14;26.37;;;13.90;;
12900;SDS011;6518;50.930;5.344;2022-12-18T06:58:41;23.47;;;14.10;;
12900;SDS011;6518;50.930;5.344;2022-12-18T07:01:09;24.43;;;14.37;;
12900;SDS011;6518;50.930;5.344;2022-12-18T07:03:37;25.33;;;14.30;;
12900;SDS011;6518;50.930;5.344;2022-12-18T07:06:04;25.20;;;14.07;;
12900;SDS011;6518;50.930;5.344;2022-12-18T07:08:32;24.37;;;13.80;;
12900;SDS011;6518;50.930;5.344;2022-12-18T07:11:02;26.80;;;13.83;;
12900;SDS011;6518;50.930;5.344;2022-12-18T07:13:30;26.47;;;14.10;;
12900;SDS011;6518;50.930;5.344;2022-12-18T07:16:02;25.47;;;14.00;;
12900;SDS011;6518;50.930;5.344;2022-12-18T07:18:30;21.90;;;13.03;;
12900;SDS011;6518;50.930;5.344;2022-12-18T07:20:57;25.27;;;13.47;;
12900;SDS011;6518;50.930;5.344;2022-12-18T07:23:24;27.30;;;14.37;;
12900;SDS011;6518;50.930;5.344;2022-12-18T07:25:51;20.30;;;12.50;;
12900;SDS011;6518;50.930;5.344;2022-12-18T07:28:19;24.40;;;13.43;;
12900;SDS011;6518;50.930;5.344;2022-12-18T07:30:46;25.77;;;13.47;;
12900;SDS011;6518;50.930;5.344;2022-12-18T07:33:13;21.60;;;13.60;;
12900;SDS011;6518;50.930;5.344;2022-12-18T07:35:40;23.13;;;13.20;;
12900;SDS011;6518;50.930;5.344;2022-12-18T07:38:07;25.27;;;12.93;;
12900;SDS011;6518;50.930;5.344;2022-12-18T07:40:34;20.40;;;12.43;;
12900;SDS011;6518;50.930;5.344;2022-12-18T07:43:01;23.07;;;13.57;;
12900;SDS011;6518;50.930;5.344;2022-12-18T07:45:32;22.50;;;12.40;;
12900;SDS011;6518;50.930;5.344;2022-12-18T07:47:59;25.10;;;13.63;;
12900;SDS011;6518;50.930;5.344;2022-12-18T07:50:26;22.03;;;12.60;;
12900;SDS011;6518;50.930;5.344;2022-12-18T07:52:59;21.87;;;12.27;;
12900;SDS011;6518;50.930;5.344;2022-12-18T07:55:28;22.83;;;12.03;;
12900;SDS011;6518;50.930;5.344;2022-12-18T07:57:55;25.67;;;12.93;;
12900;SDS011;6518;50.930;5.344;2022-12-18T08:00:22;18.63;;;12.30;;
12900;SDS011;6518;50.930;5.344;2022-12-18T08:02:50;20.93;;;12.30;;
12900;SDS011;6518;50.930;5.344;2022-12-18T08:05:17;19.57;;;11.57;;
12900;SDS011;6518;50.930;5.344;2022-12-18T08:07:44;20.87;;;11.77;;
12900;SDS011;6518;50.930;5.344;2022-12-18T08:10:10;18.90;;;12.30;;
12900;SDS011;6518;50.930;5.344;2022-12-18T08:12:38;19.90;;;11.47;;
12900;SDS011;6518;50.930;5.344;2022-12-18T08:15:05;17.97;;;10.73;;
12900;SDS011;6518;50.930;5.344;2022-12-18T08:17:32;20.67;;;11.47;;
12900;SDS011;6518;50.930;5.344;2022-12-18T08:20:01;20.10;;;11.70;;
12900;SDS011;6518;50.930;5.344;2022-12-18T08:22:28;18.17;;;11.07;;
12900;SDS011;6518;50.930;5.344;2022-12-18T08:24:55;18.57;;;11.10;;
12900;SDS011;6518;50.930;5.344;2022-12-18T08:27:22;24.27;;;11.57;;
12900;SDS011;6518;50.930;5.344;2022-12-18T08:29:48;18.57;;;11.27;;
12900;SDS011;6518;50.930;5.344;2022-12-18T08:32:15;20.40;;;11.60;;
12900;SDS011;6518;50.930;5.344;2022-12-18T08:34:42;21.63;;;11.50;;
12900;SDS011;6518;50.930;5.344;2022-12-18T08:37:10;18.40;;;11.20;;
12900;SDS011;6518;50.930;5.344;2022-12-18T08:39:37;19.10;;;11.80;;
12900;SDS011;6518;50.930;5.344;2022-12-18T08:42:04;17.97;;;11.13;;
12900;SDS011;6518;50.930;5.344;2022-12-18T08:44:48;18.70;;;11.60;;
12900;SDS011;6518;50.930;5.344;2022-12-18T08:47:15;19.13;;;11.53;;
12900;SDS011;6518;50.930;5.344;2022-12-18T08:49:42;19.37;;;11.53;;
12900;SDS011;6518;50.930;5.344;2022-12-18T08:52:10;16.23;;;10.73;;
12900;SDS011;6518;50.930;5.344;2022-12-18T08:54:38;20.47;;;11.73;;
12900;SDS011;6518;50.930;5.344;2022-12-18T08:57:04;19.47;;;10.80;;
12900;SDS011;6518;50.930;5.344;2022-12-18T08:59:31;20.17;;;12.07;;
12900;SDS011;6518;50.930;5.344;2022-12-18T09:02:01;16.67;;;10.77;;
12900;SDS011;6518;50.930;5.344;2022-12-18T09:04:32;19.23;;;11.83;;
12900;SDS011;6518;50.930;5.344;2022-12-18T09:06:59;13.63;;;10.20;;
12900;SDS011;6518;50.930;5.344;2022-12-18T09:09:28;18.17;;;10.97;;
12900;SDS011;6518;50.930;5.344;2022-12-18T09:11:55;17.47;;;10.70;;
12900;SDS011;6518;50.930;5.344;2022-12-18T09:14:21;19.20;;;11.90;;
12900;SDS011;6518;50.930;5.344;2022-12-18T09:16:48;18.13;;;10.83;;
12900;SDS011;6518;50.930;5.344;2022-12-18T09:19:15;17.97;;;11.20;;
12900;SDS011;6518;50.930;5.344;2022-12-18T09:21:42;19.97;;;11.60;;
12900;SDS011;6518;50.930;5.344;2022-12-18T09:24:10;19.00;;;12.00;;
12900;SDS011;6518;50.930;5.344;2022-12-18T09:26:40;17.53;;;10.90;;
12900;SDS011;6518;50.930;5.344;2022-12-18T09:29:07;18.37;;;11.83;;
12900;SDS011;6518;50.930;5.344;2022-12-18T09:31:36;16.83;;;11.77;;
12900;SDS011;6518;50.930;5.344;2022-12-18T09:34:04;15.87;;;11.73;;
12900;SDS011;6518;50.930;5.344;2022-12-18T09:36:33;17.83;;;11.87;;
12900;SDS011;6518;50.930;5.344;2022-12-18T09:39:00;17.70;;;11.00;;
12900;SDS011;6518;50.930;5.344;2022-12-18T09:41:33;19.43;;;11.43;;
12900;SDS011;6518;50.930;5.344;2022-12-18T09:44:12;19.63;;;10.90;;
12900;SDS011;6518;50.930;5.344;2022-12-18T09:46:45;17.80;;;11.20;;
12900;SDS011;6518;50.930;5.344;2022-12-18T09:49:15;17.57;;;11.20;;
12900;SDS011;6518;50.930;5.344;2022-12-18T09:51:46;16.50;;;11.33;;
12900;SDS011;6518;50.930;5.344;2022-12-18T09:54:18;17.03;;;11.17;;
12900;SDS011;6518;50.930;5.344;2022-12-18T09:56:48;18.83;;;11.97;;
12900;SDS011;6518;50.930;5.344;2022-12-18T09:59:19;19.77;;;11.87;;
12900;SDS011;6518;50.930;5.344;2022-12-18T10:01:50;19.17;;;12.07;;
12900;SDS011;6518;50.930;5.344;2022-12-18T10:04:17;18.13;;;11.23;;
12900;SDS011;6518;50.930;5.344;2022-12-18T10:06:45;19.73;;;11.50;;
12900;SDS011;6518;50.930;5.344;2022-12-18T10:09:20;17.70;;;12.23;;
12900;SDS011;6518;50.930;5.344;2022-12-18T10:11:56;19.20;;;12.97;;
12900;SDS011;6518;50.930;5.344;2022-12-18T10:14:33;22.27;;;11.87;;
12900;SDS011;6518;50.930;5.344;2022-12-18T10:17:07;21.63;;;12.20;;
12900;SDS011;6518;50.930;5.344;2022-12-18T10:19:43;19.77;;;12.37;;
12900;SDS011;6518;50.930;5.344;2022-12-18T10:22:18;16.90;;;11.90;;
12900;SDS011;6518;50.930;5.344;2022-12-18T10:24:53;17.57;;;11.63;;
12900;SDS011;6518;50.930;5.344;2022-12-18T10:27:26;20.50;;;13.00;;
12900;SDS011;6518;50.930;5.344;2022-12-18T10:29:56;18.20;;;12.57;;
12900;SDS011;6518;50.930;5.344;2022-12-18T10:32:25;18.57;;;12.43;;
12900;SDS011;6518;50.930;5.344;2022-12-18T10:34:55;19.00;;;12.43;;
12900;SDS011;6518;50.930;5.344;2022-12-18T10:37:24;18.13;;;12.13;;
12900;SDS011;6518;50.930;5.344;2022-12-18T10:40:06;19.50;;;12.70;;
12900;SDS011;6518;50.930;5.344;2022-12-18T10:42:35;19.53;;;13.10;;
12900;SDS011;6518;50.930;5.344;2022-12-18T10:45:11;20.40;;;12.00;;
12900;SDS011;6518;50.930;5.344;2022-12-18T10:47:41;20.50;;;12.80;;
12900;SDS011;6518;50.930;5.344;2022-12-18T10:50:18;18.80;;;12.80;;
12900;SDS011;6518;50.930;5.344;2022-12-18T10:52:55;19.80;;;12.63;;
12900;SDS011;6518;50.930;5.344;2022-12-18T10:55:23;19.87;;;12.97;;
12900;SDS011;6518;50.930;5.344;2022-12-18T10:57:53;18.80;;;12.13;;
12900;SDS011;6518;50.930;5.344;2022-12-18T11:00:25;17.67;;;12.40;;
12900;SDS011;6518;50.930;5.344;2022-12-18T11:02:54;20.23;;;12.57;;
12900;SDS011;6518;50.930;5.344;2022-12-18T11:05:26;21.97;;;13.30;;
12900;SDS011;6518;50.930;5.344;2022-12-18T11:07:54;25.23;;;16.00;;
12900;SDS011;6518;50.930;5.344;2022-12-18T11:10:22;20.37;;;13.07;;
12900;SDS011;6518;50.930;5.344;2022-12-18T11:12:52;21.70;;;12.70;;
12900;SDS011;6518;50.930;5.344;2022-12-18T11:15:19;22.17;;;13.63;;
12900;SDS011;6518;50.930;5.344;2022-12-18T11:17:50;19.97;;;12.57;;
12900;SDS011;6518;50.930;5.344;2022-12-18T11:20:23;18.43;;;12.77;;
12900;SDS011;6518;50.930;5.344;2022-12-18T11:22:57;19.30;;;13.83;;
12900;SDS011;6518;50.930;5.344;2022-12-18T11:25:26;20.80;;;13.27;;
12900;SDS011;6518;50.930;5.344;2022-12-18T11:27:54;19.63;;;13.40;;
12900;SDS011;6518;50.930;5.344;2022-12-18T11:30:23;19.27;;;13.10;;
12900;SDS011;6518;50.930;5.344;2022-12-18T11:32:54;20.20;;;12.77;;
12900;SDS011;6518;50.930;5.344;2022-12-18T11:35:28;19.97;;;13.47;;
12900;SDS011;6518;50.930;5.344;2022-12-18T11:38:18;17.33;;;12.77;;
12900;SDS011;6518;50.930;5.344;2022-12-18T11:40:50;20.60;;;13.17;;
12900;SDS011;6518;50.930;5.344;2022-12-18T11:43:21;20.10;;;13.37;;
12900;SDS011;6518;50.930;5.344;2022-12-18T11:45:55;19.77;;;13.10;;
12900;SDS011;6518;50.930;5.344;2022-12-18T11:48:28;19.43;;;13.03;;
12900;SDS011;6518;50.930;5.344;2022-12-18T11:50:59;21.87;;;13.77;;
12900;SDS011;6518;50.930;5.344;2022-12-18T11:53:29;20.80;;;13.97;;
12900;SDS011;6518;50.930;5.344;2022-12-18T11:56:00;22.63;;;13.83;;
12900;SDS011;6518;50.930;5.344;2022-12-18T11:58:45;21.80;;;13.37;;
12900;SDS011;6518;50.930;5.344;2022-12-18T12:01:17;20.23;;;13.23;;
12900;SDS011;6518;50.930;5.344;2022-12-18T12:04:08;20.90;;;13.73;;
12900;SDS011;6518;50.930;5.344;2022-12-18T12:06:53;18.77;;;13.00;;
12900;SDS011;6518;50.930;5.344;2022-12-18T12:09:30;22.40;;;14.10;;
12900;SDS011;6518;50.930;5.344;2022-12-18T12:12:12;19.23;;;12.57;;
12900;SDS011;6518;50.930;5.344;2022-12-18T12:14:50;19.80;;;12.67;;
12900;SDS011;6518;50.930;5.344;2022-12-18T12:17:24;18.90;;;12.90;;
12900;SDS011;6518;50.930;5.344;2022-12-18T12:20:03;20.37;;;13.30;;
12900;SDS011;6518;50.930;5.344;2022-12-18T12:22:37;21.47;;;13.47;;
12900;SDS011;6518;50.930;5.344;2022-12-18T12:25:26;20.40;;;14.53;;
12900;SDS011;6518;50.930;5.344;2022-12-18T12:28:02;24.37;;;14.23;;
12900;SDS011;6518;50.930;5.344;2022-12-18T12:30:39;20.47;;;13.73;;
12900;SDS011;6518;50.930;5.344;2022-12-18T12:33:18;20.80;;;14.47;;
12900;SDS011;6518;50.930;5.344;2022-12-18T12:36:01;20.50;;;13.23;;
12900;SDS011;6518;50.930;5.344;2022-12-18T12:38:41;20.33;;;13.93;;
12900;SDS011;6518;50.930;5.344;2022-12-18T12:41:12;20.63;;;14.17;;
12900;SDS011;6518;50.930;5.344;2022-12-18T12:43:55;20.40;;;13.97;;
12900;SDS011;6518;50.930;5.344;2022-12-18T12:46:26;21.83;;;14.97;;
12900;SDS011;6518;50.930;5.344;2022-12-18T12:48:55;21.57;;;14.10;;
12900;SDS011;6518;50.930;5.344;2022-12-18T12:51:29;21.20;;;14.57;;
12900;SDS011;6518;50.930;5.344;2022-12-18T12:54:01;25.20;;;15.57;;
12900;SDS011;6518;50.930;5.344;2022-12-18T12:56:36;27.37;;;17.13;;
12900;SDS011;6518;50.930;5.344;2022-12-18T12:59:09;28.43;;;17.30;;
12900;SDS011;6518;50.930;5.344;2022-12-18T13:01:48;25.93;;;15.93;;
12900;SDS011;6518;50.930;5.344;2022-12-18T13:04:21;23.30;;;15.03;;
12900;SDS011;6518;50.930;5.344;2022-12-18T13:07:00;24.57;;;15.83;;
12900;SDS011;6518;50.930;5.344;2022-12-18T13:09:33;21.10;;;14.80;;
12900;SDS011;6518;50.930;5.344;2022-12-18T13:12:02;22.37;;;14.50;;
12900;SDS011;6518;50.930;5.344;2022-12-18T13:14:48;23.57;;;15.00;;
12900;SDS011;6518;50.930;5.344;2022-12-18T13:17:16;23.07;;;15.40;;
12900;SDS011;6518;50.930;5.344;2022-12-18T13:20:09;23.40;;;14.60;;
12900;SDS011;6518;50.930;5.344;2022-12-18T13:22:40;22.67;;;15.03;;
12900;SDS011;6518;50.930;5.344;2022-12-18T13:27:59;24.13;;;15.27;;
12900;SDS011;6518;50.930;5.344;2022-12-18T13:30:49;20.83;;;14.60;;
12900;SDS011;6518;50.930;5.344;2022-12-18T13:36:13;23.77;;;15.20;;
12900;SDS011;6518;50.930;5.344;2022-12-18T13:38:44;22.20;;;14.77;;
12900;SDS011;6518;50.930;5.344;2022-12-18T13:41:24;23.57;;;15.03;;
12900;SDS011;6518;50.930;5.344;2022-12-18T13:43:53;24.00;;;15.40;;
12900;SDS011;6518;50.930;5.344;2022-12-18T13:46:24;22.17;;;14.60;;
12900;SDS011;6518;50.930;5.344;2022-12-18T13:48:55;20.53;;;14.33;;
12900;SDS011;6518;50.930;5.344;2022-12-18T13:51:24;22.40;;;14.40;;
12900;SDS011;6518;50.930;5.344;2022-12-18T13:53:55;20.87;;;14.73;;
12900;SDS011;6518;50.930;5.344;2022-12-18T13:56:25;22.97;;;15.03;;
12900;SDS011;6518;50.930;5.344;2022-12-18T13:59:14;24.50;;;15.50;;
12900;SDS011;6518;50.930;5.344;2022-12-18T14:01:45;24.33;;;15.53;;
12900;SDS011;6518;50.930;5.344;2022-12-18T14:04:18;25.27;;;16.10;;
12900;SDS011;6518;50.930;5.344;2022-12-18T14:06:47;23.87;;;15.27;;
12900;SDS011;6518;50.930;5.344;2022-12-18T14:09:19;27.27;;;17.13;;
12900;SDS011;6518;50.930;5.344;2022-12-18T14:11:50;26.00;;;16.77;;
12900;SDS011;6518;50.930;5.344;2022-12-18T14:14:18;24.17;;;16.53;;
12900;SDS011;6518;50.930;5.344;2022-12-18T14:16:45;25.50;;;16.70;;
12900;SDS011;6518;50.930;5.344;2022-12-18T14:19:14;23.63;;;16.30;;
12900;SDS011;6518;50.930;5.344;2022-12-18T14:21:46;24.07;;;15.57;;
12900;SDS011;6518;50.930;5.344;2022-12-18T14:24:14;25.63;;;16.17;;
12900;SDS011;6518;50.930;5.344;2022-12-18T14:26:44;25.00;;;16.43;;
12900;SDS011;6518;50.930;5.344;2022-12-18T14:29:18;24.33;;;16.67;;
12900;SDS011;6518;50.930;5.344;2022-12-18T14:34:33;30.23;;;19.07;;
12900;SDS011;6518;50.930;5.344;2022-12-18T14:37:00;27.97;;;17.90;;
12900;SDS011;6518;50.930;5.344;2022-12-18T14:39:27;27.23;;;18.23;;
12900;SDS011;6518;50.930;5.344;2022-12-18T14:41:55;27.00;;;17.87;;
12900;SDS011;6518;50.930;5.344;2022-12-18T14:44:22;26.83;;;18.03;;
12900;SDS011;6518;50.930;5.344;2022-12-18T14:46:49;26.73;;;17.17;;
12900;SDS011;6518;50.930;5.344;2022-12-18T14:49:21;29.20;;;17.80;;
12900;SDS011;6518;50.930;5.344;2022-12-18T14:51:51;24.20;;;16.27;;
12900;SDS011;6518;50.930;5.344;2022-12-18T14:54:20;27.00;;;16.67;;
12900;SDS011;6518;50.930;5.344;2022-12-18T14:56:48;25.60;;;17.50;;
12900;SDS011;6518;50.930;5.344;2022-12-18T14:59:19;27.83;;;16.73;;
12900;SDS011;6518;50.930;5.344;2022-12-18T15:01:49;25.43;;;17.47;;